Time;durP1;ratioP1;P1;durP2;ratioP2;P2;SDS_P1;SDS_P2;PMS_P1;PMS_P2;Temp;Humidity;BMP_temperature;BMP_pressure;BME280_temperature;BME280_humidity;BME280_pressure;Samples;Min_cycle;Max_cycle;Signal;HPM_P1;HPM_P2
2023/09/24 00:02:20;;;;;;;;;;;14.10;83.30;;;;;;4965683;28;19929;-81
2023/09/24 00:04:45;;;;;;;;;;;14.10;83.20;;;;;;4973479;28;20356;-82
2023/09/24 00:07:12;;;;;;;;;;;14.20;82.90;;;;;;4961598;28;19930;-82
2023/09/24 00:09:38;;;;;;;;;;;14.10;83.10;;;;;;4976343;28;19965;-83
2023/09/24 00:12:04;;;;;;;;;;;14.10;82.70;;;;;;4971059;28;20391;-82
2023/09/24 00:14:30;;;;;;;;;;;14.10;83.00;;;;;;4966184;28;19930;-82
2023/09/24 00:16:56;;;;;;;;;;;14.00;83.20;;;;;;4962263;28;20253;-81
2023/09/24 00:19:21;;;;;;;;;;;14.00;83.20;;;;;;4976620;28;19925;-84
2023/09/24 00:21:47;;;;;;;;;;;14.00;83.20;;;;;;4974797;28;19922;-84
2023/09/24 00:24:13;;;;;;;;;;;13.90;83.60;;;;;;4969083;28;20443;-86
2023/09/24 00:26:38;;;;;;;;;;;13.90;83.60;;;;;;4962877;28;19914;-84
2023/09/24 00:29:04;;;;;;;;;;;13.90;83.60;;;;;;4962474;28;20463;-84
2023/09/24 00:31:30;;;;;;;;;;;13.80;83.60;;;;;;4979330;28;19921;-84
2023/09/24 00:33:56;;;;;;;;;;;13.90;83.30;;;;;;4972455;28;19922;-84
2023/09/24 00:36:22;;;;;;;;;;;13.80;83.40;;;;;;4965963;28;19930;-83
2023/09/24 00:38:49;;;;;;;;;;;13.80;83.60;;;;;;4970248;28;19914;-84
2023/09/24 00:41:15;;;;;;;;;;;13.80;83.60;;;;;;4978230;28;20311;-84
2023/09/24 00:43:43;;;;;;;;;;;13.80;83.70;;;;;;4966892;28;19918;-85
2023/09/24 00:46:09;;;;;;;;;;;13.70;83.50;;;;;;4964420;28;20345;-84
2023/09/24 00:48:34;;;;;;;;;;;13.60;83.90;;;;;;4994579;28;19957;-85
2023/09/24 00:51:04;;;;;;;;;;;13.60;84.20;;;;;;4976925;28;19914;-85
2023/09/24 00:53:31;;;;;;;;;;;13.60;84.00;;;;;;4970162;28;19938;-85
2023/09/24 00:55:57;;;;;;;;;;;13.50;84.40;;;;;;4976764;28;19910;-85
2023/09/24 00:58:26;;;;;;;;;;;13.50;84.40;;;;;;4983640;28;19910;-85
2023/09/24 01:00:51;;;;;;;;;;;13.50;84.70;;;;;;4970756;28;19915;-85
2023/09/24 01:03:18;;;;;;;;;;;13.60;84.60;;;;;;4965465;28;19914;-85
2023/09/24 01:05:44;;;;;;;;;;;13.60;84.00;;;;;;4977465;28;19919;-84
2023/09/24 01:08:10;;;;;;;;;;;13.60;83.90;;;;;;4966688;28;20348;-84
2023/09/24 01:10:35;;;;;;;;;;;13.50;83.70;;;;;;4964357;28;19944;-83
2023/09/24 01:13:04;;;;;;;;;;;13.40;84.10;;;;;;4963914;28;19926;-86
2023/09/24 01:15:31;;;;;;;;;;;13.30;84.00;;;;;;4968916;28;19918;-84
2023/09/24 01:17:57;;;;;;;;;;;13.40;83.80;;;;;;4963007;28;20227;-85
2023/09/24 01:20:24;;;;;;;;;;;13.40;84.00;;;;;;4971359;28;19934;-84
2023/09/24 01:22:50;;;;;;;;;;;13.30;84.10;;;;;;4971653;28;19918;-85
2023/09/24 01:25:18;;;;;;;;;;;13.30;84.10;;;;;;4972958;28;20368;-84
2023/09/24 01:27:44;;;;;;;;;;;13.20;84.20;;;;;;4971157;28;20048;-84
2023/09/24 01:30:10;;;;;;;;;;;13.30;84.10;;;;;;4974670;28;19918;-84
2023/09/24 01:32:36;;;;;;;;;;;13.20;84.00;;;;;;4962435;28;19918;-84
2023/09/24 01:35:02;;;;;;;;;;;13.20;84.00;;;;;;4977642;28;19949;-86
2023/09/24 01:37:28;;;;;;;;;;;13.10;84.60;;;;;;4978370;28;19910;-84
2023/09/24 01:39:54;;;;;;;;;;;13.10;85.10;;;;;;4965861;28;19972;-85
2023/09/24 01:42:20;;;;;;;;;;;13.10;85.20;;;;;;4974007;28;19914;-85
2023/09/24 01:44:45;;;;;;;;;;;13.10;84.50;;;;;;4976701;28;19984;-85
2023/09/24 01:47:11;;;;;;;;;;;13.10;84.40;;;;;;4968351;28;19910;-84
2023/09/24 01:49:36;;;;;;;;;;;13.10;84.10;;;;;;4964619;28;19959;-84
2023/09/24 01:52:03;;;;;;;;;;;13.10;83.90;;;;;;4975593;28;20061;-83
2023/09/24 01:54:30;;;;;;;;;;;13.10;84.00;;;;;;4979178;28;20115;-83
2023/09/24 01:56:57;;;;;;;;;;;13.10;84.00;;;;;;4963480;28;20005;-83
2023/09/24 01:59:26;;;;;;;;;;;13.00;84.40;;;;;;4958329;28;19918;-83
2023/09/24 02:01:52;;;;;;;;;;;13.10;84.40;;;;;;4961296;28;20275;-84
2023/09/24 02:04:17;;;;;;;;;;;13.00;84.40;;;;;;4968112;28;19961;-84
2023/09/24 02:06:43;;;;;;;;;;;13.00;84.40;;;;;;4975325;28;19922;-84
2023/09/24 02:09:09;;;;;;;;;;;12.90;84.50;;;;;;4973060;28;19942;-85
2023/09/24 02:11:34;;;;;;;;;;;12.80;84.50;;;;;;4967220;28;19910;-85
2023/09/24 02:13:59;;;;;;;;;;;13.00;83.90;;;;;;4968170;28;19925;-84
2023/09/24 02:16:29;;;;;;;;;;;12.90;84.10;;;;;;4964178;28;20304;-85
2023/09/24 02:18:55;;;;;;;;;;;13.00;83.80;;;;;;4972110;28;19922;-84
2023/09/24 02:21:24;;;;;;;;;;;13.00;84.10;;;;;;4965214;28;19910;-84
2023/09/24 02:23:52;;;;;;;;;;;12.90;83.90;;;;;;4969490;28;19945;-84
2023/09/24 02:26:17;;;;;;;;;;;12.90;83.90;;;;;;4972640;28;19918;-85
2023/09/24 02:28:43;;;;;;;;;;;12.90;83.80;;;;;;4977211;28;19917;-84
2023/09/24 02:31:12;;;;;;;;;;;12.90;84.10;;;;;;4969097;28;20388;-84
2023/09/24 02:33:38;;;;;;;;;;;12.90;84.20;;;;;;4973764;28;19950;-85
2023/09/24 02:36:08;;;;;;;;;;;12.90;83.60;;;;;;4976599;28;19918;-85
2023/09/24 02:38:34;;;;;;;;;;;12.80;84.20;;;;;;4980115;28;19910;-83
2023/09/24 02:40:59;;;;;;;;;;;12.70;84.40;;;;;;4974958;28;19921;-84
2023/09/24 02:43:25;;;;;;;;;;;12.70;84.50;;;;;;4976238;28;19918;-84
2023/09/24 02:45:50;;;;;;;;;;;12.70;84.20;;;;;;4974821;28;19918;-85
2023/09/24 02:48:19;;;;;;;;;;;12.60;84.00;;;;;;4968753;28;19914;-85
2023/09/24 02:50:44;;;;;;;;;;;12.60;84.30;;;;;;4979902;28;19910;-86
2023/09/24 02:53:10;;;;;;;;;;;12.70;83.60;;;;;;4965049;28;19928;-85
2023/09/24 02:55:38;;;;;;;;;;;12.60;84.50;;;;;;4972605;28;19939;-84
2023/09/24 02:58:04;;;;;;;;;;;12.70;84.00;;;;;;4966962;28;19917;-84
2023/09/24 03:00:41;;;;;;;;;;;12.60;84.30;;;;;;4977294;28;19914;-83
2023/09/24 03:03:09;;;;;;;;;;;12.60;84.30;;;;;;4963473;28;20051;-84
2023/09/24 03:05:35;;;;;;;;;;;12.50;84.70;;;;;;4971444;28;19910;-84
2023/09/24 03:08:04;;;;;;;;;;;12.50;84.30;;;;;;4976753;28;19914;-85
2023/09/24 03:10:31;;;;;;;;;;;12.60;84.30;;;;;;4975603;28;19926;-83
2023/09/24 03:12:57;;;;;;;;;;;12.50;84.30;;;;;;4975711;28;19926;-85
2023/09/24 03:15:23;;;;;;;;;;;12.50;84.30;;;;;;4976224;28;19914;-84
2023/09/24 03:17:49;;;;;;;;;;;12.40;84.20;;;;;;4973116;28;19954;-85
2023/09/24 03:20:15;;;;;;;;;;;12.30;84.20;;;;;;4999808;28;19933;-85
2023/09/24 03:22:42;;;;;;;;;;;12.30;84.20;;;;;;4974263;28;20300;-84
2023/09/24 03:25:10;;;;;;;;;;;12.40;83.70;;;;;;4999248;28;19911;-85
2023/09/24 03:27:36;;;;;;;;;;;12.40;83.80;;;;;;4997757;28;19933;-85
2023/09/24 03:30:02;;;;;;;;;;;12.50;83.50;;;;;;4968675;28;19910;-85
2023/09/24 03:32:31;;;;;;;;;;;12.50;83.70;;;;;;4999536;23;19941;-86
2023/09/24 03:34:56;;;;;;;;;;;12.50;83.90;;;;;;4975380;28;20323;-85
2023/09/24 03:37:22;;;;;;;;;;;12.50;83.70;;;;;;4978073;28;19915;-85
2023/09/24 03:39:47;;;;;;;;;;;12.40;83.80;;;;;;4965183;28;19915;-86
2023/09/24 03:42:14;;;;;;;;;;;12.40;84.20;;;;;;4962834;28;20000;-85
2023/09/24 03:44:39;;;;;;;;;;;12.40;84.60;;;;;;4959617;28;19915;-85
2023/09/24 03:47:05;;;;;;;;;;;12.30;85.00;;;;;;4977465;28;19922;-86
2023/09/24 03:49:30;;;;;;;;;;;12.30;85.10;;;;;;4958892;29;19997;-85
2023/09/24 03:51:56;;;;;;;;;;;12.30;84.70;;;;;;4959445;29;19953;-86
2023/09/24 03:54:21;;;;;;;;;;;12.30;85.10;;;;;;4952688;28;20009;-86
2023/09/24 03:56:47;;;;;;;;;;;12.30;84.90;;;;;;4947843;29;19923;-86
2023/09/24 03:59:12;;;;;;;;;;;12.30;85.10;;;;;;4959806;28;19938;-86
2023/09/24 04:01:39;;;;;;;;;;;12.30;84.70;;;;;;4958811;28;20038;-86
2023/09/24 04:04:05;;;;;;;;;;;12.30;85.20;;;;;;4955614;28;20556;-86
2023/09/24 04:06:30;;;;;;;;;;;12.20;85.00;;;;;;4974116;28;19970;-85
2023/09/24 04:08:56;;;;;;;;;;;12.30;84.50;;;;;;4961263;29;19946;-85
2023/09/24 04:11:21;;;;;;;;;;;12.30;84.40;;;;;;4962824;29;19922;-86
2023/09/24 04:13:47;;;;;;;;;;;12.20;84.60;;;;;;4959151;28;19923;-86
2023/09/24 04:16:12;;;;;;;;;;;12.20;84.80;;;;;;4956753;29;19958;-86
2023/09/24 04:18:41;;;;;;;;;;;12.20;84.50;;;;;;4958626;29;19990;-86
2023/09/24 04:21:17;;;;;;;;;;;12.20;85.10;;;;;;4981982;28;19921;-85
2023/09/24 04:23:43;;;;;;;;;;;12.20;84.80;;;;;;4985945;28;19918;-85
2023/09/24 04:26:16;;;;;;;;;;;12.20;84.80;;;;;;4961754;28;19938;-86
2023/09/24 04:28:42;;;;;;;;;;;12.20;84.70;;;;;;4960828;29;19919;-86
2023/09/24 04:31:07;;;;;;;;;;;12.30;84.90;;;;;;4958190;28;20026;-86
2023/09/24 04:33:34;;;;;;;;;;;12.30;84.70;;;;;;4954992;28;20445;-86
2023/09/24 04:36:00;;;;;;;;;;;12.20;84.80;;;;;;4959886;29;20533;-86
2023/09/24 04:38:25;;;;;;;;;;;12.20;84.30;;;;;;4958947;28;19914;-86
2023/09/24 04:40:51;;;;;;;;;;;12.20;84.70;;;;;;4956338;29;19968;-85
2023/09/24 04:43:18;;;;;;;;;;;12.20;84.60;;;;;;4952881;29;19914;-86
2023/09/24 04:45:43;;;;;;;;;;;12.20;84.50;;;;;;4958814;29;19914;-86
2023/09/24 04:48:09;;;;;;;;;;;12.20;84.50;;;;;;4959778;28;20445;-86
2023/09/24 04:50:35;;;;;;;;;;;12.20;84.70;;;;;;4953554;29;19917;-86
2023/09/24 04:53:00;;;;;;;;;;;12.20;84.60;;;;;;4947838;29;19919;-86
2023/09/24 04:55:26;;;;;;;;;;;12.30;84.30;;;;;;4960291;29;19919;-86
2023/09/24 04:57:52;;;;;;;;;;;12.20;84.40;;;;;;4961053;29;19930;-86
2023/09/24 05:00:17;;;;;;;;;;;12.20;84.50;;;;;;4960345;29;20560;-86
2023/09/24 05:02:43;;;;;;;;;;;12.10;84.80;;;;;;4950842;28;19999;-86
2023/09/24 05:05:08;;;;;;;;;;;12.00;84.80;;;;;;4954361;29;19915;-86
2023/09/24 05:07:34;;;;;;;;;;;12.00;84.90;;;;;;4957891;29;19914;-86
2023/09/24 05:09:59;;;;;;;;;;;11.90;85.00;;;;;;4952073;29;19915;-86
2023/09/24 05:12:25;;;;;;;;;;;12.00;84.90;;;;;;4958115;29;19989;-86
2023/09/24 05:14:50;;;;;;;;;;;12.00;85.00;;;;;;4958234;29;20391;-86
2023/09/24 05:17:16;;;;;;;;;;;11.90;85.30;;;;;;4959932;29;20049;-86
2023/09/24 05:19:41;;;;;;;;;;;12.00;85.30;;;;;;4957977;28;19926;-86
2023/09/24 05:22:07;;;;;;;;;;;12.00;85.00;;;;;;4954805;29;19915;-86
2023/09/24 05:24:33;;;;;;;;;;;12.10;84.70;;;;;;4975299;28;20380;-86
2023/09/24 05:26:58;;;;;;;;;;;12.10;84.50;;;;;;4953986;28;20287;-85
2023/09/24 05:29:24;;;;;;;;;;;12.10;84.90;;;;;;4955213;29;19915;-86
2023/09/24 05:31:49;;;;;;;;;;;12.10;84.80;;;;;;4955615;29;19953;-86
2023/09/24 05:34:15;;;;;;;;;;;12.10;85.30;;;;;;4953167;29;19925;-86
2023/09/24 05:36:40;;;;;;;;;;;12.10;85.30;;;;;;4952584;28;19915;-86
2023/09/24 05:39:06;;;;;;;;;;;12.10;85.40;;;;;;4951438;29;19917;-86
2023/09/24 05:41:31;;;;;;;;;;;12.10;85.60;;;;;;4952656;28;20379;-86
2023/09/24 05:44:01;;;;;;;;;;;12.00;85.40;;;;;;4955281;28;20320;-86
2023/09/24 05:46:26;;;;;;;;;;;12.10;85.70;;;;;;4977975;28;19914;-85
2023/09/24 05:48:55;;;;;;;;;;;12.10;85.50;;;;;;4957186;29;20083;-86
2023/09/24 05:51:20;;;;;;;;;;;12.10;85.20;;;;;;4954061;28;19918;-87
2023/09/24 05:53:46;;;;;;;;;;;12.10;85.50;;;;;;4954812;29;19923;-86
2023/09/24 05:56:11;;;;;;;;;;;12.10;85.60;;;;;;4955698;28;19914;-86
2023/09/24 05:58:37;;;;;;;;;;;12.20;85.40;;;;;;4955793;28;20439;-86
2023/09/24 06:01:03;;;;;;;;;;;12.20;85.20;;;;;;4953328;28;19918;-86
2023/09/24 06:03:29;;;;;;;;;;;12.20;85.40;;;;;;4944807;29;19954;-87
2023/09/24 06:05:54;;;;;;;;;;;12.20;85.20;;;;;;4949662;28;19919;-86
2023/09/24 06:08:20;;;;;;;;;;;12.20;85.20;;;;;;4949007;29;20309;-86
2023/09/24 06:10:46;;;;;;;;;;;12.20;85.60;;;;;;4957553;28;19911;-86
2023/09/24 06:13:13;;;;;;;;;;;12.30;85.10;;;;;;4955552;28;19919;-86
2023/09/24 06:15:39;;;;;;;;;;;12.50;84.60;;;;;;4979930;28;19917;-86
2023/09/24 06:18:05;;;;;;;;;;;12.40;84.80;;;;;;4980913;28;20329;-86
2023/09/24 06:20:30;;;;;;;;;;;12.40;85.20;;;;;;4952204;28;19962;-86
2023/09/24 06:22:57;;;;;;;;;;;12.40;85.50;;;;;;4955159;28;19921;-86
2023/09/24 06:25:23;;;;;;;;;;;12.40;85.80;;;;;;4960331;29;19914;-87
2023/09/24 06:27:49;;;;;;;;;;;12.50;86.10;;;;;;4974177;28;20161;-88
2023/09/24 06:30:14;;;;;;;;;;;12.50;86.00;;;;;;4972489;28;19914;-86
2023/09/24 06:32:40;;;;;;;;;;;12.50;85.80;;;;;;4973188;28;19919;-87
2023/09/24 06:35:05;;;;;;;;;;;12.50;86.10;;;;;;4955617;28;20009;-86
2023/09/24 06:37:31;;;;;;;;;;;12.50;86.20;;;;;;4955556;29;20046;-86
2023/09/24 06:39:57;;;;;;;;;;;12.60;86.10;;;;;;4957117;29;19910;-86
2023/09/24 06:42:22;;;;;;;;;;;12.60;86.10;;;;;;4972366;28;19937;-86
2023/09/24 06:44:49;;;;;;;;;;;12.60;86.00;;;;;;4955190;28;19914;-87
2023/09/24 06:47:14;;;;;;;;;;;12.70;86.00;;;;;;4978040;28;19911;-86
2023/09/24 06:49:39;;;;;;;;;;;12.70;86.10;;;;;;4956871;28;19934;-86
2023/09/24 06:52:05;;;;;;;;;;;12.80;86.00;;;;;;4950931;29;19915;-86
2023/09/24 06:54:34;;;;;;;;;;;12.80;85.70;;;;;;4950469;28;19918;-86
2023/09/24 06:56:59;;;;;;;;;;;12.80;86.10;;;;;;4972767;28;19910;-86
2023/09/24 06:59:25;;;;;;;;;;;12.80;86.00;;;;;;4972065;28;20443;-86
2023/09/24 07:01:54;;;;;;;;;;;12.90;85.70;;;;;;4979119;28;20376;-86
2023/09/24 07:04:19;;;;;;;;;;;13.00;85.40;;;;;;4956577;29;20269;-85
2023/09/24 07:06:45;;;;;;;;;;;13.10;84.20;;;;;;4960323;29;19915;-85
2023/09/24 07:09:10;;;;;;;;;;;13.20;83.90;;;;;;4959388;28;19918;-84
2023/09/24 07:11:38;;;;;;;;;;;13.20;83.50;;;;;;4960157;28;19911;-86
2023/09/24 07:14:04;;;;;;;;;;;13.20;84.10;;;;;;4958560;29;20416;-85
2023/09/24 07:16:30;;;;;;;;;;;13.20;83.90;;;;;;4959549;29;20431;-83
2023/09/24 07:18:57;;;;;;;;;;;13.20;84.00;;;;;;4956920;29;19921;-85
2023/09/24 07:21:28;;;;;;;;;;;13.30;83.70;;;;;;4956173;28;20334;-85
2023/09/24 07:23:57;;;;;;;;;;;13.40;83.50;;;;;;4957194;29;19933;-83
2023/09/24 07:26:23;;;;;;;;;;;13.50;82.50;;;;;;4955555;28;19914;-84
2023/09/24 07:28:48;;;;;;;;;;;13.60;82.00;;;;;;4958033;29;19925;-84
2023/09/24 07:31:15;;;;;;;;;;;13.60;81.80;;;;;;4958900;28;20034;-84
2023/09/24 07:33:42;;;;;;;;;;;13.70;82.00;;;;;;4953163;29;19919;-83
2023/09/24 07:36:08;;;;;;;;;;;13.80;81.80;;;;;;4969867;28;20321;-84
2023/09/24 07:38:34;;;;;;;;;;;13.80;81.90;;;;;;4945348;29;19965;-84
2023/09/24 07:40:59;;;;;;;;;;;13.80;82.00;;;;;;4957421;28;19919;-83
2023/09/24 07:43:25;;;;;;;;;;;13.90;81.80;;;;;;4953325;28;20369;-83
2023/09/24 07:45:50;;;;;;;;;;;14.00;81.60;;;;;;4955317;28;19929;-83
2023/09/24 07:48:16;;;;;;;;;;;14.10;81.70;;;;;;4959135;29;19978;-85
2023/09/24 07:50:48;;;;;;;;;;;14.10;81.20;;;;;;4963296;28;19950;-84
2023/09/24 07:53:13;;;;;;;;;;;14.10;80.90;;;;;;4962786;28;19915;-85
2023/09/24 07:55:39;;;;;;;;;;;14.10;81.30;;;;;;4956430;28;19917;-85
2023/09/24 07:58:04;;;;;;;;;;;14.10;80.90;;;;;;4957177;28;19921;-85
2023/09/24 08:00:30;;;;;;;;;;;14.10;80.90;;;;;;4960557;28;19914;-84
2023/09/24 08:02:55;;;;;;;;;;;14.20;80.70;;;;;;4957638;29;20262;-86
2023/09/24 08:05:21;;;;;;;;;;;14.30;80.40;;;;;;4957409;28;19919;-85
2023/09/24 08:07:46;;;;;;;;;;;14.20;80.50;;;;;;4955996;29;19914;-84
2023/09/24 08:10:12;;;;;;;;;;;14.30;80.50;;;;;;4951717;28;19918;-83
2023/09/24 08:12:37;;;;;;;;;;;14.40;79.90;;;;;;4947693;28;20304;-83
2023/09/24 08:15:04;;;;;;;;;;;14.50;79.60;;;;;;4942646;28;19915;-83
2023/09/24 08:17:30;;;;;;;;;;;14.50;79.80;;;;;;4951466;28;19969;-82
2023/09/24 08:19:55;;;;;;;;;;;14.60;79.70;;;;;;4954502;29;19915;-83
2023/09/24 08:22:23;;;;;;;;;;;14.80;79.30;;;;;;4950857;28;20047;-85
2023/09/24 08:24:48;;;;;;;;;;;14.80;78.70;;;;;;4956660;28;20341;-84
2023/09/24 08:27:14;;;;;;;;;;;15.00;79.00;;;;;;4957854;29;19994;-84
2023/09/24 08:29:39;;;;;;;;;;;15.00;79.30;;;;;;4953936;29;20045;-82
2023/09/24 08:32:05;;;;;;;;;;;15.10;78.00;;;;;;4944365;28;19922;-84
2023/09/24 08:34:30;;;;;;;;;;;15.20;77.80;;;;;;4947946;28;19981;-85
2023/09/24 08:36:56;;;;;;;;;;;15.10;78.40;;;;;;4959491;29;20508;-84
2023/09/24 08:39:21;;;;;;;;;;;15.10;78.70;;;;;;4956022;28;19923;-84
2023/09/24 08:41:47;;;;;;;;;;;15.20;78.60;;;;;;4953304;28;20234;-83
2023/09/24 08:44:16;;;;;;;;;;;15.10;78.80;;;;;;4951775;28;19922;-84
2023/09/24 08:46:50;;;;;;;;;;;15.20;78.70;;;;;;4956337;28;20757;-84
2023/09/24 08:49:18;;;;;;;;;;;15.30;78.70;;;;;;4945273;28;19915;-84
2023/09/24 08:51:45;;;;;;;;;;;15.50;77.90;;;;;;4970641;28;19988;-84
2023/09/24 08:54:11;;;;;;;;;;;15.50;77.30;;;;;;4961097;28;19915;-84
2023/09/24 08:56:36;;;;;;;;;;;15.50;77.30;;;;;;4961793;28;19968;-85
2023/09/24 08:59:03;;;;;;;;;;;15.60;77.40;;;;;;4967240;28;19929;-83
2023/09/24 09:01:28;;;;;;;;;;;15.60;77.00;;;;;;4965241;28;19925;-83
2023/09/24 09:03:54;;;;;;;;;;;15.60;77.80;;;;;;4970924;28;19915;-83
2023/09/24 09:06:29;;;;;;;;;;;15.70;76.60;;;;;;4961447;28;19950;-84
2023/09/24 09:08:55;;;;;;;;;;;15.80;75.50;;;;;;4985148;28;19919;-86
2023/09/24 09:11:22;;;;;;;;;;;15.90;74.40;;;;;;4964975;28;19941;-85
2023/09/24 09:13:48;;;;;;;;;;;15.90;73.90;;;;;;4964501;28;19930;-85
2023/09/24 09:16:16;;;;;;;;;;;16.00;73.20;;;;;;4957374;28;19922;-85
2023/09/24 09:18:42;;;;;;;;;;;16.00;74.10;;;;;;4967423;28;19921;-85
2023/09/24 09:21:07;;;;;;;;;;;16.00;74.70;;;;;;4960877;28;19915;-87
2023/09/24 09:23:33;;;;;;;;;;;16.00;75.30;;;;;;4965501;28;19957;-87
2023/09/24 09:25:59;;;;;;;;;;;16.00;75.40;;;;;;4967659;29;19911;-87
2023/09/24 09:28:28;;;;;;;;;;;16.10;75.40;;;;;;4974158;29;19921;-87
2023/09/24 09:30:57;;;;;;;;;;;16.30;74.20;;;;;;4974470;28;19941;-84
2023/09/24 09:33:30;;;;;;;;;;;16.40;74.10;;;;;;4965558;29;20366;-86
2023/09/24 09:35:57;;;;;;;;;;;16.40;73.60;;;;;;4959859;29;19915;-85
2023/09/24 09:38:23;;;;;;;;;;;16.40;72.90;;;;;;4963802;28;19970;-85
2023/09/24 09:40:52;;;;;;;;;;;16.60;70.40;;;;;;4971716;28;19914;-85
2023/09/24 09:43:20;;;;;;;;;;;16.60;68.60;;;;;;4965745;28;19915;-85
2023/09/24 09:45:47;;;;;;;;;;;16.80;68.00;;;;;;4962991;28;19938;-84
2023/09/24 09:48:13;;;;;;;;;;;16.90;67.60;;;;;;4959226;28;21204;-85
2023/09/24 09:50:41;;;;;;;;;;;16.90;68.60;;;;;;4958424;28;19914;-85
2023/09/24 09:53:10;;;;;;;;;;;17.10;66.30;;;;;;4952678;28;19926;-86
2023/09/24 09:55:39;;;;;;;;;;;17.10;66.30;;;;;;4949558;28;19914;-85
2023/09/24 09:58:05;;;;;;;;;;;17.10;67.60;;;;;;4952166;28;19925;-86
2023/09/24 10:00:31;;;;;;;;;;;17.20;67.40;;;;;;4954276;28;19961;-87
2023/09/24 10:02:57;;;;;;;;;;;17.20;67.50;;;;;;4967289;29;19915;-87
2023/09/24 10:05:22;;;;;;;;;;;17.10;67.80;;;;;;4977093;28;19923;-87
2023/09/24 10:07:48;;;;;;;;;;;17.10;67.10;;;;;;4955926;28;19921;-86
2023/09/24 10:10:32;;;;;;;;;;;17.20;65.20;;;;;;4951370;28;19950;-88
2023/09/24 10:12:59;;;;;;;;;;;17.30;65.10;;;;;;4946232;28;19919;-87
2023/09/24 10:15:28;;;;;;;;;;;17.50;63.30;;;;;;4948559;28;19921;-87
2023/09/24 10:18:09;;;;;;;;;;;17.70;61.70;;;;;;4950696;28;19954;-86
2023/09/24 10:20:50;;;;;;;;;;;17.60;64.70;;;;;;4941695;28;19915;-87
2023/09/24 10:23:28;;;;;;;;;;;17.60;60.50;;;;;;4959268;28;20857;-89
2023/09/24 10:25:53;;;;;;;;;;;17.80;60.40;;;;;;4952888;28;20372;-87
2023/09/24 10:28:19;;;;;;;;;;;17.80;61.30;;;;;;4948161;28;19972;-87
2023/09/24 10:31:04;;;;;;;;;;;17.90;60.00;;;;;;4951646;29;20376;-87
2023/09/24 10:33:48;;;;;;;;;;;18.00;59.70;;;;;;4946475;28;19965;-86
2023/09/24 10:36:17;;;;;;;;;;;18.00;62.10;;;;;;4955592;29;19930;-82
2023/09/24 10:39:03;;;;;;;;;;;18.00;60.90;;;;;;4950044;29;19962;-85
2023/09/24 10:41:28;;;;;;;;;;;18.10;62.00;;;;;;4954223;28;20337;-85
2023/09/24 10:44:13;;;;;;;;;;;18.10;61.60;;;;;;4958823;29;19919;-84
2023/09/24 10:46:38;;;;;;;;;;;18.10;62.10;;;;;;4957438;28;19915;-87
2023/09/24 10:49:04;;;;;;;;;;;18.10;63.80;;;;;;4958359;28;19938;-86
2023/09/24 10:51:30;;;;;;;;;;;18.00;64.70;;;;;;4952815;28;19922;-85
2023/09/24 10:54:11;;;;;;;;;;;18.00;64.20;;;;;;4951626;28;19927;-85
2023/09/24 10:56:37;;;;;;;;;;;18.00;62.20;;;;;;4964049;28;19918;-86
2023/09/24 10:59:03;;;;;;;;;;;18.00;62.50;;;;;;4957062;28;19979;-85
2023/09/24 11:01:29;;;;;;;;;;;18.10;60.10;;;;;;4956961;29;19918;-84
2023/09/24 11:03:55;;;;;;;;;;;18.30;59.50;;;;;;4958294;28;19919;-86
2023/09/24 11:06:29;;;;;;;;;;;18.50;59.40;;;;;;4959879;29;20009;-85
2023/09/24 11:09:09;;;;;;;;;;;18.50;59.50;;;;;;4970912;28;19965;-85
2023/09/24 11:11:35;;;;;;;;;;;18.40;59.00;;;;;;4950105;28;20360;-85
2023/09/24 11:14:12;;;;;;;;;;;18.30;59.50;;;;;;4944849;29;19919;-85
2023/09/24 11:16:37;;;;;;;;;;;18.20;57.20;;;;;;4953775;29;19925;-85
2023/09/24 11:19:03;;;;;;;;;;;18.20;59.90;;;;;;4952423;28;19922;-85
2023/09/24 11:21:32;;;;;;;;;;;18.20;59.10;;;;;;4971707;28;19915;-85
2023/09/24 11:23:57;;;;;;;;;;;18.20;59.50;;;;;;4967594;28;19934;-84
2023/09/24 11:26:29;;;;;;;;;;;18.20;60.50;;;;;;4961511;29;19910;-85
2023/09/24 11:29:24;;;;;;;;;;;18.30;58.70;;;;;;4953621;28;19926;-86
2023/09/24 11:31:55;;;;;;;;;;;18.30;59.20;;;;;;4936660;29;20009;-86
2023/09/24 11:34:21;;;;;;;;;;;18.30;59.20;;;;;;4953148;28;19973;-85
2023/09/24 11:36:55;;;;;;;;;;;18.30;59.40;;;;;;4961781;28;19915;-85
2023/09/24 11:39:20;;;;;;;;;;;18.40;59.90;;;;;;4953926;28;19934;-85
2023/09/24 11:41:46;;;;;;;;;;;18.50;58.20;;;;;;4952569;28;19915;-85
2023/09/24 11:44:11;;;;;;;;;;;18.50;57.80;;;;;;4951469;28;19918;-85
2023/09/24 11:46:38;;;;;;;;;;;18.50;56.50;;;;;;4954612;28;19911;-85
2023/09/24 11:49:04;;;;;;;;;;;18.60;57.70;;;;;;4962759;29;19922;-84
2023/09/24 11:51:30;;;;;;;;;;;18.80;57.90;;;;;;4957605;28;19915;-85
2023/09/24 11:53:56;;;;;;;;;;;18.80;57.10;;;;;;4959135;28;19918;-85
2023/09/24 11:56:22;;;;;;;;;;;18.90;57.80;;;;;;4961237;28;20009;-84
2023/09/24 11:58:48;;;;;;;;;;;18.90;57.90;;;;;;4958958;28;19920;-84
2023/09/24 12:01:13;;;;;;;;;;;19.00;57.80;;;;;;4958490;28;19986;-85
2023/09/24 12:03:39;;;;;;;;;;;19.00;58.70;;;;;;4965565;29;20006;-86
2023/09/24 12:06:05;;;;;;;;;;;19.00;59.20;;;;;;4983378;28;19957;-85
2023/09/24 12:08:30;;;;;;;;;;;19.00;59.20;;;;;;4963540;28;19915;-86
2023/09/24 12:10:56;;;;;;;;;;;18.90;59.30;;;;;;4969136;29;19910;-85
2023/09/24 12:13:22;;;;;;;;;;;19.00;58.10;;;;;;4965452;28;19961;-86
2023/09/24 12:15:47;;;;;;;;;;;19.20;58.70;;;;;;4965257;28;20590;-85
2023/09/24 12:18:13;;;;;;;;;;;19.10;58.10;;;;;;4966433;28;19915;-86
2023/09/24 12:20:40;;;;;;;;;;;19.10;58.50;;;;;;4960924;28;19949;-88
2023/09/24 12:23:07;;;;;;;;;;;19.10;58.70;;;;;;4970413;28;19930;-85
2023/09/24 12:25:36;;;;;;;;;;;19.00;59.60;;;;;;4960767;28;20004;-88
2023/09/24 12:28:05;;;;;;;;;;;19.00;58.10;;;;;;4961076;28;19919;-86
2023/09/24 12:30:31;;;;;;;;;;;19.10;56.70;;;;;;4965201;28;19914;-85
2023/09/24 12:32:57;;;;;;;;;;;19.20;55.60;;;;;;4973042;28;19919;-86
2023/09/24 12:35:24;;;;;;;;;;;19.40;55.90;;;;;;4973701;28;19926;-86
2023/09/24 12:37:49;;;;;;;;;;;19.30;56.30;;;;;;4963138;28;20062;-87
2023/09/24 12:40:15;;;;;;;;;;;19.30;55.60;;;;;;4967874;29;20360;-86
2023/09/24 12:42:41;;;;;;;;;;;19.30;54.80;;;;;;4955754;28;19910;-86
2023/09/24 12:45:08;;;;;;;;;;;19.50;54.20;;;;;;4961401;28;19951;-86
2023/09/24 12:47:33;;;;;;;;;;;19.30;56.20;;;;;;4959883;28;19910;-86
2023/09/24 12:49:59;;;;;;;;;;;19.30;56.30;;;;;;4961458;28;19978;-86
2023/09/24 12:52:25;;;;;;;;;;;19.20;55.90;;;;;;4958559;28;19918;-86
2023/09/24 12:54:51;;;;;;;;;;;19.10;57.20;;;;;;4961397;28;19911;-86
2023/09/24 12:57:17;;;;;;;;;;;19.10;57.60;;;;;;4961126;28;19982;-86
2023/09/24 12:59:42;;;;;;;;;;;19.10;55.80;;;;;;4961989;28;19918;-87
2023/09/24 13:02:08;;;;;;;;;;;19.20;57.20;;;;;;4959411;28;19973;-87
2023/09/24 13:04:34;;;;;;;;;;;19.20;57.10;;;;;;4966490;28;19915;-86
2023/09/24 13:07:00;;;;;;;;;;;19.20;57.50;;;;;;4969353;29;19915;-86
2023/09/24 13:09:25;;;;;;;;;;;19.10;58.70;;;;;;4998408;28;19929;-86
2023/09/24 13:11:50;;;;;;;;;;;19.20;57.80;;;;;;4965273;28;19915;-86
2023/09/24 13:14:16;;;;;;;;;;;19.30;58.30;;;;;;4966899;28;19930;-87
2023/09/24 13:16:42;;;;;;;;;;;19.40;57.00;;;;;;4961534;28;19938;-86
2023/09/24 13:19:13;;;;;;;;;;;19.50;54.80;;;;;;4970301;28;20292;-86
2023/09/24 13:21:40;;;;;;;;;;;19.40;56.40;;;;;;4970702;28;19919;-87
2023/09/24 13:24:07;;;;;;;;;;;19.30;54.90;;;;;;4966499;28;19911;-85
2023/09/24 13:26:32;;;;;;;;;;;19.30;54.90;;;;;;4961510;28;19915;-86
2023/09/24 13:28:57;;;;;;;;;;;19.20;57.10;;;;;;4966395;28;19938;-86
2023/09/24 13:31:23;;;;;;;;;;;19.10;55.50;;;;;;4965649;28;19919;-87
2023/09/24 13:33:49;;;;;;;;;;;19.00;54.80;;;;;;4966362;29;19935;-86
2023/09/24 13:36:14;;;;;;;;;;;19.00;55.50;;;;;;4964228;28;19946;-86
2023/09/24 13:38:40;;;;;;;;;;;19.00;56.10;;;;;;4980597;28;19914;-86
2023/09/24 13:41:05;;;;;;;;;;;19.00;57.00;;;;;;4967151;28;19910;-86
2023/09/24 13:43:31;;;;;;;;;;;19.00;57.00;;;;;;4970120;28;19914;-86
2023/09/24 13:45:56;;;;;;;;;;;19.10;56.20;;;;;;4963157;28;19938;-86
2023/09/24 13:48:22;;;;;;;;;;;19.20;56.80;;;;;;4961066;28;19923;-86
2023/09/24 13:50:48;;;;;;;;;;;19.20;58.30;;;;;;4957802;28;19938;-87
2023/09/24 13:53:14;;;;;;;;;;;19.10;58.30;;;;;;4960332;28;19953;-86
2023/09/24 13:55:42;;;;;;;;;;;19.10;57.20;;;;;;4959470;28;19982;-87
2023/09/24 13:58:07;;;;;;;;;;;19.40;54.30;;;;;;4959860;28;19911;-86
2023/09/24 14:00:33;;;;;;;;;;;19.30;54.80;;;;;;4960903;28;19921;-86
2023/09/24 14:02:58;;;;;;;;;;;19.20;55.20;;;;;;4959194;28;19903;-86
2023/09/24 14:05:24;;;;;;;;;;;19.10;56.10;;;;;;4964151;29;19923;-87
2023/09/24 14:07:59;;;;;;;;;;;19.30;55.00;;;;;;4966563;29;19918;-87
2023/09/24 14:13:09;;;;;;;;;;;19.40;53.60;;;;;;4952800;28;20034;-86
2023/09/24 14:15:36;;;;;;;;;;;19.60;52.80;;;;;;4954421;28;19914;-86
2023/09/24 14:18:02;;;;;;;;;;;19.50;54.50;;;;;;4958308;29;19966;-86